Time;durP1;ratioP1;P1;durP2;ratioP2;P2;SDS_P1;SDS_P2;PMS_P1;PMS_P2;Temp;Humidity;BMP_temperature;BMP_pressure;BME280_temperature;BME280_humidity;BME280_pressure;Samples;Min_cycle;Max_cycle;Signal;HPM_P1;HPM_P2
2023/05/24 00:02:02;;;;;;;;;;;;;;;20.59;61.72;99622.50;4346499;32;34071;-83
2023/05/24 00:04:30;;;;;;;;;;;;;;;20.71;61.20;99620.59;4358047;32;33783;-84
2023/05/24 00:06:58;;;;;;;;;;;;;;;20.63;61.48;99618.59;4348018;32;34547;-83
2023/05/24 00:09:29;;;;;;;;;;;;;;;20.71;61.22;99616.09;4345973;32;32389;-83
2023/05/24 00:11:57;;;;;;;;;;;;;;;20.77;60.96;99611.16;4357181;32;34876;-83
2023/05/24 00:14:25;;;;;;;;;;;;;;;20.71;61.16;99610.72;4337950;32;33259;-84
2023/05/24 00:16:53;;;;;;;;;;;;;;;20.76;61.07;99606.78;4336819;32;32976;-84
2023/05/24 00:19:28;;;;;;;;;;;;;;;20.81;60.62;99601.84;4349301;32;34310;-83
2023/05/24 00:21:56;;;;;;;;;;;;;;;20.80;60.50;99616.25;4347630;32;33689;-84
2023/05/24 00:24:24;;;;;;;;;;;;;;;20.64;60.70;99609.53;4351798;32;33634;-84
2023/05/24 00:26:52;;;;;;;;;;;;;;;20.87;59.92;99609.34;4346813;32;33905;-84
2023/05/24 00:29:20;;;;;;;;;;;;;;;20.74;nan;99604.22;4335249;32;32580;-83
2023/05/24 00:31:49;;;;;;;;;;;;;;;20.68;60.68;99605.59;4333930;32;34282;-84
2023/05/24 00:34:17;;;;;;;;;;;;;;;20.58;60.69;99602.03;4366675;32;33744;-84
2023/05/24 00:36:44;;;;;;;;;;;;;;;20.50;61.39;99599.19;4343568;32;34464;-84
2023/05/24 00:39:12;;;;;;;;;;;;;;;20.57;61.14;99592.31;4345027;32;32838;-84
2023/05/24 00:41:41;;;;;;;;;;;;;;;20.57;61.07;99600.34;4341302;32;33998;-84
2023/05/24 00:44:09;;;;;;;;;;;;;;;20.57;61.05;99589.63;4349717;32;34628;-84
2023/05/24 00:46:37;;;;;;;;;;;;;;;20.62;60.62;99589.22;4346751;32;34243;-84
2023/05/24 00:49:05;;;;;;;;;;;;;;;20.46;61.33;99593.22;4333577;32;32258;-84
2023/05/24 00:51:35;;;;;;;;;;;;;;;20.36;61.85;99594.16;4351445;32;35499;-84
2023/05/24 00:54:03;;;;;;;;;;;;;;;20.32;62.03;99592.72;4356742;32;33893;-84
2023/05/24 00:56:31;;;;;;;;;;;;;;;20.44;61.85;99597.87;4347125;32;33923;-84
2023/05/24 00:58:59;;;;;;;;;;;;;;;20.50;61.40;99604.56;4342213;32;32489;-84
2023/05/24 01:01:29;;;;;;;;;;;;;;;20.37;62.13;99606.59;4333161;32;32819;-84
2023/05/24 01:03:58;;;;;;;;;;;;;;;20.14;62.93;99612.13;4357031;32;33908;-84
2023/05/24 01:06:26;;;;;;;;;;;;;;;20.45;61.62;99602.25;4356811;32;35088;-83
2023/05/24 01:09:01;;;;;;;;;;;;;;;20.38;62.14;99613.66;4355291;32;32613;-84
2023/05/24 01:11:45;;;;;;;;;;;;;;;20.48;61.48;99606.53;4354151;32;33786;-83
2023/05/24 01:14:28;;;;;;;;;;;;;;;20.35;62.55;99608.56;4351183;32;35135;-83
2023/05/24 01:17:13;;;;;;;;;;;;;;;20.46;62.06;99600.41;4355573;32;34890;-83
2023/05/24 01:19:52;;;;;;;;;;;;;;;20.47;61.82;99599.47;4335224;32;32796;-83
2023/05/24 01:22:27;;;;;;;;;;;;;;;20.33;62.10;99599.81;4355239;32;34844;-83
2023/05/24 01:25:13;;;;;;;;;;;;;;;20.55;61.23;99591.56;4346702;32;33582;-83
2023/05/24 01:27:40;;;;;;;;;;;;;;;20.48;62.09;99593.12;4345445;32;34480;-83
2023/05/24 01:30:08;;;;;;;;;;;;;;;20.63;61.37;99591.75;4334005;32;32318;-84
2023/05/24 01:32:37;;;;;;;;;;;;;;;20.35;62.56;99593.31;4352897;32;35015;-84
2023/05/24 01:35:05;;;;;;;;;;;;;;;20.38;62.38;99597.56;4332203;32;33720;-84
2023/05/24 01:37:34;;;;;;;;;;;;;;;20.45;62.38;99591.50;4351509;32;34596;-83
2023/05/24 01:40:03;;;;;;;;;;;;;;;20.46;62.14;99598.59;4353708;32;33673;-83
2023/05/24 01:42:40;;;;;;;;;;;;;;;20.51;62.12;99584.81;4346778;32;33797;-85
2023/05/24 01:45:17;;;;;;;;;;;;;;;20.51;62.00;99574.09;4362901;32;33771;-85
2023/05/24 01:48:05;;;;;;;;;;;;;;;20.44;61.85;99575.56;4342416;32;33555;-85
2023/05/24 01:50:36;;;;;;;;;;;;;;;20.42;62.52;99580.22;4366656;32;33625;-85
2023/05/24 01:53:04;;;;;;;;;;;;;;;20.53;61.59;99585.50;4335120;32;34323;-85
2023/05/24 01:55:32;;;;;;;;;;;;;;;20.48;61.98;99582.41;4335052;32;32849;-83
2023/05/24 01:58:01;;;;;;;;;;;;;;;20.39;62.48;99580.50;4367607;32;34344;-84
2023/05/24 02:00:28;;;;;;;;;;;;;;;20.38;62.70;99578.78;4382740;32;31983;-84
2023/05/24 02:02:57;;;;;;;;;;;;;;;20.36;62.81;99576.22;4355569;32;33214;-84
2023/05/24 02:05:25;;;;;;;;;;;;;;;20.44;62.54;99587.13;4353577;32;32956;-84
2023/05/24 02:07:54;;;;;;;;;;;;;;;20.41;62.53;99583.88;4367780;32;33696;-84
2023/05/24 02:10:23;;;;;;;;;;;;;;;20.40;62.41;99583.03;4351824;32;32228;-84
2023/05/24 02:12:50;;;;;;;;;;;;;;;20.46;62.20;99581.63;4367636;32;34748;-84
2023/05/24 02:15:19;;;;;;;;;;;;;;;20.37;62.60;99585.16;4353692;32;33950;-84
2023/05/24 02:17:48;;;;;;;;;;;;;;;20.40;62.39;99593.75;4355918;32;33523;-84
2023/05/24 02:20:16;;;;;;;;;;;;;;;20.33;62.80;99583.72;4368171;32;33472;-84
2023/05/24 02:22:44;;;;;;;;;;;;;;;20.43;61.90;99574.72;4358112;32;32957;-84
2023/05/24 02:25:11;;;;;;;;;;;;;;;20.44;62.11;99588.97;4368431;32;34283;-84
2023/05/24 02:27:40;;;;;;;;;;;;;;;20.43;62.06;99589.97;4367801;32;34139;-84
2023/05/24 02:30:09;;;;;;;;;;;;;;;20.52;61.54;99585.66;4367973;32;33800;-84
2023/05/24 02:32:38;;;;;;;;;;;;;;;20.39;61.98;99577.81;4368387;32;34806;-84
2023/05/24 02:35:06;;;;;;;;;;;;;;;20.27;62.42;99579.75;4350739;32;33790;-84
2023/05/24 02:37:34;;;;;;;;;;;;;;;20.16;62.93;99572.63;4367094;32;35547;-85
2023/05/24 02:40:04;;;;;;;;;;;;;;;20.15;62.92;99570.94;4366664;32;33886;-84
2023/05/24 02:42:32;;;;;;;;;;;;;;;20.16;62.97;99572.63;4358150;32;34763;-84
2023/05/24 02:45:00;;;;;;;;;;;;;;;20.16;62.78;99580.66;4367940;32;34467;-85
2023/05/24 02:47:27;;;;;;;;;;;;;;;20.22;62.39;99571.22;4370972;32;35125;-84
2023/05/24 02:49:55;;;;;;;;;;;;;;;20.16;62.63;99564.56;4355846;32;32403;-85
2023/05/24 02:52:23;;;;;;;;;;;;;;;20.16;62.64;99566.41;4355750;32;34020;-84
2023/05/24 02:54:51;;;;;;;;;;;;;;;20.13;62.49;99562.19;4366061;32;34543;-83
2023/05/24 02:57:19;;;;;;;;;;;;;;;20.07;62.46;99557.34;4368868;32;34430;-83
2023/05/24 02:59:47;;;;;;;;;;;;;;;20.02;63.11;99569.44;4343261;32;33708;-83
2023/05/24 03:02:16;;;;;;;;;;;;;;;20.09;62.77;99560.75;4368015;32;33450;-83
2023/05/24 03:04:44;;;;;;;;;;;;;;;19.88;63.58;99575.97;4367161;32;33445;-83
2023/05/24 03:07:13;;;;;;;;;;;;;;;19.84;64.05;99574.53;4366595;32;35182;-83
2023/05/24 03:09:41;;;;;;;;;;;;;;;19.92;63.91;99574.75;4379450;32;32513;-84
2023/05/24 03:12:09;;;;;;;;;;;;;;;19.97;63.57;99574.34;4366316;32;34201;-83
2023/05/24 03:14:37;;;;;;;;;;;;;;;20.05;63.08;99578.06;4368896;32;34068;-83
2023/05/24 03:17:05;;;;;;;;;;;;;;;19.89;63.63;99580.34;4364898;32;33926;-84
2023/05/24 03:19:36;;;;;;;;;;;;;;;19.93;63.46;99582.63;4369260;32;35218;-83
2023/05/24 03:22:05;;;;;;;;;;;;;;;19.99;63.34;99578.62;4369797;32;34051;-84
2023/05/24 03:24:37;;;;;;;;;;;;;;;19.95;63.67;99577.16;4370162;32;34282;-83
2023/05/24 03:27:05;;;;;;;;;;;;;;;19.94;63.51;99584.38;4369953;32;34623;-83
2023/05/24 03:29:33;;;;;;;;;;;;;;;19.86;63.72;99583.31;4367564;32;33140;-84
2023/05/24 03:32:02;;;;;;;;;;;;;;;19.91;63.87;99578.41;4367030;32;34933;-84
2023/05/24 03:34:30;;;;;;;;;;;;;;;19.87;63.65;99587.69;4368338;32;33963;-85
2023/05/24 03:36:58;;;;;;;;;;;;;;;19.93;63.85;99587.16;4367999;32;34532;-84
2023/05/24 03:39:27;;;;;;;;;;;;;;;19.86;64.32;99586.00;4366820;32;33913;-84
2023/05/24 03:41:56;;;;;;;;;;;;;;;19.97;63.61;99588.59;4367906;32;33757;-84
2023/05/24 03:44:24;;;;;;;;;;;;;;;19.86;64.15;99592.19;4358191;32;32945;-84
2023/05/24 03:46:52;;;;;;;;;;;;;;;19.55;65.78;99591.22;4378204;32;33445;-85
2023/05/24 03:49:20;;;;;;;;;;;;;;;19.81;65.31;99593.59;4365451;32;33801;-85
2023/05/24 03:51:48;;;;;;;;;;;;;;;19.66;66.10;99596.59;4367147;32;33771;-85
2023/05/24 03:54:17;;;;;;;;;;;;;;;19.77;66.02;99611.75;4360344;32;32266;-85
2023/05/24 03:56:45;;;;;;;;;;;;;;;20.18;64.28;99608.19;4330324;32;34471;-84
2023/05/24 03:59:13;;;;;;;;;;;;;;;20.44;63.62;99608.59;4353515;32;34184;-85
2023/05/24 04:01:40;;;;;;;;;;;;;;;20.30;64.20;99606.28;4354378;32;33868;-85
2023/05/24 04:04:08;;;;;;;;;;;;;;;19.99;65.64;99618.81;4360254;32;34329;-85
2023/05/24 04:06:40;;;;;;;;;;;;;;;20.31;64.58;99615.16;4354697;32;34127;-85
2023/05/24 04:09:08;;;;;;;;;;;;;;;20.20;64.64;99611.59;4341844;32;33172;-85
2023/05/24 04:11:39;;;;;;;;;;;;;;;20.14;65.33;99617.47;4353727;32;33338;-85
2023/05/24 04:14:06;;;;;;;;;;;;;;;20.27;64.87;99600.31;4359869;32;32991;-85
2023/05/24 04:16:38;;;;;;;;;;;;;;;20.08;65.16;99617.12;4355335;32;34473;-85
2023/05/24 04:19:08;;;;;;;;;;;;;;;20.15;65.41;99616.50;4339991;32;32143;-84
2023/05/24 04:21:37;;;;;;;;;;;;;;;19.71;66.89;99624.81;4359737;32;32881;-84
2023/05/24 04:24:05;;;;;;;;;;;;;;;19.84;66.44;99625.44;4360148;32;34275;-84
2023/05/24 04:26:33;;;;;;;;;;;;;;;19.99;66.23;99616.12;4373525;32;34171;-84
2023/05/24 04:31:43;;;;;;;;;;;;;;;20.37;65.17;99623.53;4354367;32;33859;-84
2023/05/24 04:34:13;;;;;;;;;;;;;;;20.28;65.64;99628.84;4340373;32;33087;-83
2023/05/24 04:36:42;;;;;;;;;;;;;;;20.04;66.52;99629.97;4351407;32;34520;-84
2023/05/24 04:39:10;;;;;;;;;;;;;;;20.40;65.49;99633.13;4354140;32;33581;-83
2023/05/24 04:41:39;;;;;;;;;;;;;;;20.54;65.06;99630.13;4354154;32;34138;-83
2023/05/24 04:44:08;;;;;;;;;;;;;;;20.62;64.68;99630.31;4348911;32;34962;-83
2023/05/24 04:46:39;;;;;;;;;;;;;;;20.38;65.86;99627.91;4355115;32;33088;-83
2023/05/24 04:49:13;;;;;;;;;;;;;;;20.66;64.90;99623.69;4344566;32;32143;-83
2023/05/24 04:51:43;;;;;;;;;;;;;;;20.16;66.21;99626.22;4365579;32;32577;-83
2023/05/24 04:54:10;;;;;;;;;;;;;;;20.21;66.48;99634.72;4358938;32;34767;-83
2023/05/24 04:56:39;;;;;;;;;;;;;;;19.84;68.09;99638.84;4347120;32;33956;-83
2023/05/24 04:59:07;;;;;;;;;;;;;;;19.89;67.46;99633.94;4353098;32;33934;-83
2023/05/24 05:01:36;;;;;;;;;;;;;;;19.74;68.19;99629.91;4339891;32;34225;-82
2023/05/24 05:04:06;;;;;;;;;;;;;;;20.08;67.00;99627.87;4327070;32;32971;-82
2023/05/24 05:06:38;;;;;;;;;;;;;;;20.04;67.09;99629.97;4342575;32;34004;-82
2023/05/24 05:09:11;;;;;;;;;;;;;;;20.21;66.70;99637.41;4357793;32;33590;-83
2023/05/24 05:11:41;;;;;;;;;;;;;;;19.99;67.86;99629.53;4340914;32;33916;-83
2023/05/24 05:14:12;;;;;;;;;;;;;;;20.37;66.25;99644.16;4361359;32;33939;-83
2023/05/24 05:16:41;;;;;;;;;;;;;;;20.00;67.46;99646.47;4341671;32;34701;-84
2023/05/24 05:19:09;;;;;;;;;;;;;;;19.98;67.58;99643.03;4360192;32;32363;-84
2023/05/24 05:21:40;;;;;;;;;;;;;;;19.98;67.71;99643.87;4338621;32;33439;-84
2023/05/24 05:24:10;;;;;;;;;;;;;;;20.44;66.18;99650.66;4355784;32;33354;-84
2023/05/24 05:26:39;;;;;;;;;;;;;;;19.97;67.86;99652.91;4364069;32;33870;-85
2023/05/24 05:29:09;;;;;;;;;;;;;;;20.63;65.68;99658.81;4333954;32;32466;-84
2023/05/24 05:31:38;;;;;;;;;;;;;;;20.76;65.65;99652.41;4363498;32;34214;-85
2023/05/24 05:34:10;;;;;;;;;;;;;;;20.96;64.49;99652.31;4335759;32;32973;-85
2023/05/24 05:36:39;;;;;;;;;;;;;;;21.14;63.86;99654.34;4364224;32;32857;-85
2023/05/24 05:39:10;;;;;;;;;;;;;;;21.32;63.50;99651.88;4345597;32;33187;-84
2023/05/24 05:41:41;;;;;;;;;;;;;;;21.40;63.42;99663.59;4358603;32;32509;-85
2023/05/24 05:44:13;;;;;;;;;;;;;;;21.53;63.04;99660.66;4351708;32;34457;-84
2023/05/24 05:46:44;;;;;;;;;;;;;;;21.55;62.80;99668.56;4365241;32;33682;-85
2023/05/24 05:49:14;;;;;;;;;;;;;;;21.53;62.93;99671.38;4347621;32;33629;-85
2023/05/24 05:51:42;;;;;;;;;;;;;;;21.81;62.66;99667.00;4382838;32;33991;-85
2023/05/24 05:54:14;;;;;;;;;;;;;;;22.19;61.25;99665.31;4342822;32;33920;-85
2023/05/24 05:56:47;;;;;;;;;;;;;;;22.08;60.84;99676.19;4345993;32;34721;-85
2023/05/24 05:59:16;;;;;;;;;;;;;;;22.36;59.64;99679.84;4359328;32;33296;-84
2023/05/24 06:01:46;;;;;;;;;;;;;;;22.44;59.02;99663.81;4363645;32;34574;-85
2023/05/24 06:04:14;;;;;;;;;;;;;;;22.46;59.32;99672.63;4356591;32;34784;-85
2023/05/24 06:06:44;;;;;;;;;;;;;;;22.69;58.57;99673.97;4359545;32;34032;-84
2023/05/24 06:09:13;;;;;;;;;;;;;;;22.58;58.88;99675.97;4361633;32;33288;-84
2023/05/24 06:11:43;;;;;;;;;;;;;;;22.48;58.71;99670.63;4346938;32;32688;-84
2023/05/24 06:14:17;;;;;;;;;;;;;;;22.50;58.70;99665.91;4342924;32;34693;-84
2023/05/24 06:16:46;;;;;;;;;;;;;;;22.47;58.22;99677.00;4357840;32;33890;-84
2023/05/24 06:19:15;;;;;;;;;;;;;;;22.28;58.72;99677.03;4344434;32;32437;-85
2023/05/24 06:21:46;;;;;;;;;;;;;;;22.27;59.27;99678.88;4358860;32;34650;-84
2023/05/24 06:24:21;;;;;;;;;;;;;;;22.60;58.17;99677.53;4356080;32;33947;-85
2023/05/24 06:26:51;;;;;;;;;;;;;;;22.49;58.09;99681.22;4358338;32;34490;-84
2023/05/24 06:29:27;;;;;;;;;;;;;;;22.31;59.07;99688.34;4363533;32;33312;-85
2023/05/24 06:31:54;;;;;;;;;;;;;;;22.40;58.30;99692.00;4363774;32;33235;-84
2023/05/24 06:34:22;;;;;;;;;;;;;;;22.33;58.48;99686.38;4356762;32;34655;-85
2023/05/24 06:36:51;;;;;;;;;;;;;;;22.17;58.41;99696.84;4355518;32;34528;-84
2023/05/24 06:39:19;;;;;;;;;;;;;;;22.60;57.23;99690.97;4341144;32;32700;-85
2023/05/24 06:41:50;;;;;;;;;;;;;;;23.00;56.17;99679.06;4348531;32;33062;-84
2023/05/24 06:44:22;;;;;;;;;;;;;;;22.68;56.41;99688.37;4358520;32;35087;-85
2023/05/24 06:46:56;;;;;;;;;;;;;;;22.27;57.54;99703.09;4342768;32;33996;-85
2023/05/24 06:49:24;;;;;;;;;;;;;;;22.91;55.90;99698.81;4355963;32;33616;-84
2023/05/24 06:51:54;;;;;;;;;;;;;;;22.83;55.86;99695.97;4364858;32;33047;-84
2023/05/24 06:54:21;;;;;;;;;;;;;;;22.83;56.25;99701.38;4359862;32;33635;-84
2023/05/24 06:56:51;;;;;;;;;;;;;;;22.18;57.89;99704.81;4330485;32;33330;-85
2023/05/24 06:59:22;;;;;;;;;;;;;;;22.98;56.64;99708.84;4341002;32;33824;-84
2023/05/24 07:01:56;;;;;;;;;;;;;;;22.82;56.76;99703.22;4353746;32;33553;-85
2023/05/24 07:04:29;;;;;;;;;;;;;;;23.16;55.69;99708.03;4370395;32;34008;-84
2023/05/24 07:06:57;;;;;;;;;;;;;;;22.80;55.93;99709.75;4336054;32;34206;-85
2023/05/24 07:09:25;;;;;;;;;;;;;;;22.59;56.68;99715.31;4361073;32;33758;-85
2023/05/24 07:11:53;;;;;;;;;;;;;;;23.05;54.96;99708.25;4362073;32;34900;-85
2023/05/24 07:14:26;;;;;;;;;;;;;;;23.04;55.81;99717.34;4357583;32;33980;-85
2023/05/24 07:16:56;;;;;;;;;;;;;;;23.31;54.89;99719.16;4354571;32;35618;-85
2023/05/24 07:19:28;;;;;;;;;;;;;;;23.36;54.55;99719.56;4354558;32;32483;-85
2023/05/24 07:21:58;;;;;;;;;;;;;;;23.30;54.04;99723.69;4353987;32;33388;-85
2023/05/24 07:24:26;;;;;;;;;;;;;;;23.09;54.97;99726.66;4355914;32;33892;-85
2023/05/24 07:26:58;;;;;;;;;;;;;;;22.95;55.76;99730.69;4350848;32;34568;-84
2023/05/24 07:29:26;;;;;;;;;;;;;;;23.69;53.89;99728.88;4362877;32;33156;-83
2023/05/24 07:31:55;;;;;;;;;;;;;;;22.88;54.72;99734.94;4330435;32;33302;-84
2023/05/24 07:34:28;;;;;;;;;;;;;;;22.80;54.88;99731.28;4354016;32;34766;-82
2023/05/24 07:37:00;;;;;;;;;;;;;;;23.06;54.19;99731.47;4355373;32;34423;-82
2023/05/24 07:39:27;;;;;;;;;;;;;;;23.61;53.13;99732.31;4353694;32;34421;-81
2023/05/24 07:41:57;;;;;;;;;;;;;;;23.11;53.96;99730.03;4353010;32;34004;-81
2023/05/24 07:44:28;;;;;;;;;;;;;;;23.63;52.67;99730.31;4340787;32;32900;-82
2023/05/24 07:46:57;;;;;;;;;;;;;;;23.73;52.61;99731.12;4329711;32;35739;-82
2023/05/24 07:49:26;;;;;;;;;;;;;;;23.83;52.52;99722.09;4348021;32;33301;-82
2023/05/24 07:51:58;;;;;;;;;;;;;;;23.76;52.15;99724.59;4329727;32;32923;-81
2023/05/24 07:54:27;;;;;;;;;;;;;;;23.37;54.25;99732.06;4359445;32;33540;-82
2023/05/24 07:56:56;;;;;;;;;;;;;;;23.88;54.21;99739.53;4378492;32;33247;-82
2023/05/24 07:59:26;;;;;;;;;;;;;;;23.57;53.88;99736.31;4360880;32;32843;-82
2023/05/24 08:02:00;;;;;;;;;;;;;;;23.92;52.59;99731.97;4341035;32;34236;-82
2023/05/24 08:04:32;;;;;;;;;;;;;;;23.39;53.42;99728.19;4341626;32;33222;-82
2023/05/24 08:07:01;;;;;;;;;;;;;;;23.69;52.91;99735.16;4354048;32;34555;-82
2023/05/24 08:09:34;;;;;;;;;;;;;;;24.01;52.74;99729.19;4361681;32;32434;-82
2023/05/24 08:12:04;;;;;;;;;;;;;;;24.51;51.20;99727.78;4361040;32;34987;-82
2023/05/24 08:14:32;;;;;;;;;;;;;;;24.22;51.42;99734.28;4351320;32;33690;-82
2023/05/24 08:17:00;;;;;;;;;;;;;;;24.47;50.69;99734.50;4353692;32;33852;-82
2023/05/24 08:19:34;;;;;;;;;;;;;;;24.69;50.49;99728.59;4335273;32;31913;-81
2023/05/24 08:22:03;;;;;;;;;;;;;;;24.31;51.31;99734.31;4355171;32;34870;-82
2023/05/24 08:24:31;;;;;;;;;;;;;;;24.67;50.73;99730.56;4358087;32;34920;-82
2023/05/24 08:26:59;;;;;;;;;;;;;;;24.83;49.97;99737.94;4353634;32;34117;-82
2023/05/24 08:29:27;;;;;;;;;;;;;;;24.93;49.07;99743.25;4346120;32;33345;-82
2023/05/24 08:31:55;;;;;;;;;;;;;;;24.20;51.12;99754.31;4353316;32;34075;-82
2023/05/24 08:34:24;;;;;;;;;;;;;;;24.41;49.50;99757.56;4348389;32;33878;-82
2023/05/24 08:36:52;;;;;;;;;;;;;;;24.65;49.87;99750.66;4360265;32;33873;-82
2023/05/24 08:39:21;;;;;;;;;;;;;;;24.99;48.18;99750.69;4356121;32;33532;-82
2023/05/24 08:41:51;;;;;;;;;;;;;;;25.33;48.84;99752.56;4342062;32;32409;-82
2023/05/24 08:44:52;;;;;;;;;;;;;;;24.85;48.89;99759.38;4356530;32;33954;-82
2023/05/24 08:47:21;;;;;;;;;;;;;;;24.24;49.62;99764.63;4361542;32;34127;-82
2023/05/24 08:49:50;;;;;;;;;;;;;;;25.02;48.80;99756.63;4356549;32;32184;-82
2023/05/24 08:52:19;;;;;;;;;;;;;;;25.35;47.43;99758.63;4335803;32;32965;-82
2023/05/24 08:54:48;;;;;;;;;;;;;;;25.41;47.18;99766.97;4360050;32;33519;-81
2023/05/24 08:57:20;;;;;;;;;;;;;;;24.83;48.58;99755.97;4353203;32;34806;-82
2023/05/24 08:59:48;;;;;;;;;;;;;;;25.39;47.67;99762.72;4352523;32;32491;-81
2023/05/24 09:02:17;;;;;;;;;;;;;;;25.16;48.51;99760.59;4362542;32;33633;-82
2023/05/24 09:04:45;;;;;;;;;;;;;;;25.06;47.47;99767.09;4353468;32;35047;-81
2023/05/24 09:07:19;;;;;;;;;;;;;;;25.07;47.71;99764.28;4343398;32;35090;-83
2023/05/24 09:09:49;;;;;;;;;;;;;;;25.09;48.20;99759.53;4352843;32;33119;-82
2023/05/24 09:12:18;;;;;;;;;;;;;;;25.43;47.48;99758.69;4353970;32;34581;-82
2023/05/24 09:15:04;;;;;;;;;;;;;;;25.19;48.39;99762.97;4353959;32;33934;-82
2023/05/24 09:17:34;;;;;;;;;;;;;;;25.02;48.76;99761.19;4353265;32;34694;-82
2023/05/24 09:20:09;;;;;;;;;;;;;;;25.37;48.11;99771.00;4351436;32;32271;-82
2023/05/24 09:22:39;;;;;;;;;;;;;;;25.38;47.47;99777.25;4357440;32;33135;-82
2023/05/24 09:25:09;;;;;;;;;;;;;;;25.68;46.79;99765.00;4352576;32;33986;-83
2023/05/24 09:27:38;;;;;;;;;;;;;;;25.56;47.62;99769.03;4359815;32;35690;-82
2023/05/24 09:30:08;;;;;;;;;;;;;;;25.28;48.33;99771.97;4352563;32;33083;-82
2023/05/24 09:32:36;;;;;;;;;;;;;;;26.07;47.18;99773.41;4358415;32;33256;-82
2023/05/24 09:35:09;;;;;;;;;;;;;;;26.29;45.49;99767.31;4350667;32;34551;-82
2023/05/24 09:37:40;;;;;;;;;;;;;;;26.30;44.98;99769.03;4348332;32;34278;-82
2023/05/24 09:40:17;;;;;;;;;;;;;;;26.12;45.76;99762.94;4360340;32;35235;-82
2023/05/24 09:42:52;;;;;;;;;;;;;;;26.11;45.80;99763.94;4347363;32;34694;-82
2023/05/24 09:45:20;;;;;;;;;;;;;;;26.32;46.19;99762.59;4358515;32;33702;-83
2023/05/24 09:47:51;;;;;;;;;;;;;;;26.53;45.97;99766.50;4359331;32;35034;-82
2023/05/24 09:50:21;;;;;;;;;;;;;;;26.69;44.83;99770.22;4344131;32;33581;-82
2023/05/24 09:52:49;;;;;;;;;;;;;;;26.40;45.58;99778.84;4338620;32;33779;-82
2023/05/24 09:55:22;;;;;;;;;;;;;;;26.46;43.78;99768.22;4353651;32;34175;-82
2023/05/24 09:57:51;;;;;;;;;;;;;;;26.44;44.48;99772.09;4331718;32;33706;-81
2023/05/24 10:00:23;;;;;;;;;;;;;;;25.88;45.97;99769.16;4357280;32;33190;-82
2023/05/24 10:03:01;;;;;;;;;;;;;;;26.17;44.52;99774.09;4354070;32;32673;-82
2023/05/24 10:05:29;;;;;;;;;;;;;;;26.21;44.39;99772.75;4350029;32;32935;-83
2023/05/24 10:07:57;;;;;;;;;;;;;;;26.68;44.50;99777.50;4371852;32;34343;-81
2023/05/24 10:10:26;;;;;;;;;;;;;;;26.63;44.25;99785.28;4354166;32;33268;-82
2023/05/24 10:12:56;;;;;;;;;;;;;;;26.68;43.99;99782.94;4355915;32;33047;-82
2023/05/24 10:15:24;;;;;;;;;;;;;;;26.29;45.17;99780.84;4355088;32;32935;-82
2023/05/24 10:17:52;;;;;;;;;;;;;;;26.94;42.88;99776.44;4350346;32;34336;-82
2023/05/24 10:20:22;;;;;;;;;;;;;;;27.06;43.02;99775.91;4349267;32;34123;-82
2023/05/24 10:22:52;;;;;;;;;;;;;;;26.91;43.33;99765.94;4340596;32;33569;-82
2023/05/24 10:25:24;;;;;;;;;;;;;;;27.19;43.24;99769.94;4333083;32;33453;-81
2023/05/24 10:27:53;;;;;;;;;;;;;;;27.46;42.79;99771.38;4353468;32;34726;-82
2023/05/24 10:30:26;;;;;;;;;;;;;;;27.76;40.56;99766.16;4354615;32;34251;-82
2023/05/24 10:32:55;;;;;;;;;;;;;;;27.44;41.41;99777.97;4356222;32;33430;-83
2023/05/24 10:35:23;;;;;;;;;;;;;;;27.73;40.31;99767.38;4353331;32;34395;-82
2023/05/24 10:37:51;;;;;;;;;;;;;;;27.70;41.00;99756.84;4351286;32;33215;-82
2023/05/24 10:40:20;;;;;;;;;;;;;;;27.30;42.54;99763.31;4353216;32;34067;-82
2023/05/24 10:42:50;;;;;;;;;;;;;;;27.21;43.61;99770.63;4355283;32;33894;-82
2023/05/24 10:45:34;;;;;;;;;;;;;;;27.36;41.98;99764.47;4352293;32;33945;-82
2023/05/24 10:48:23;;;;;;;;;;;;;;;27.49;40.99;99752.03;4354624;32;32634;-82
2023/05/24 10:50:51;;;;;;;;;;;;;;;27.47;42.32;99750.50;4357973;32;33208;-82
2023/05/24 10:53:26;;;;;;;;;;;;;;;27.62;41.67;99737.88;4353781;32;32928;-83
2023/05/24 10:55:59;;;;;;;;;;;;;;;27.38;41.32;99748.87;4354206;32;34422;-82
2023/05/24 10:58:34;;;;;;;;;;;;;;;27.64;41.19;99752.13;4355774;32;33810;-82
2023/05/24 11:01:03;;;;;;;;;;;;;;;27.21;41.28;99754.38;4360165;32;34217;-82
2023/05/24 11:03:33;;;;;;;;;;;;;;;27.60;41.04;99742.66;4357531;32;34836;-82
2023/05/24 11:06:03;;;;;;;;;;;;;;;27.86;40.62;99747.78;4352080;32;34695;-82
2023/05/24 11:08:32;;;;;;;;;;;;;;;27.65;41.35;99747.53;4353726;32;34519;-82
2023/05/24 11:11:08;;;;;;;;;;;;;;;27.92;40.94;99754.38;4355066;32;32133;-82
2023/05/24 11:13:59;;;;;;;;;;;;;;;28.30;39.45;99749.84;4352735;32;33781;-82
2023/05/24 11:19:27;;;;;;;;;;;;;;;28.10;39.60;99737.75;4354332;32;34045;-81
2023/05/24 11:21:57;;;;;;;;;;;;;;;27.91;39.17;99736.38;4355020;32;33248;-82
2023/05/24 11:24:31;;;;;;;;;;;;;;;27.72;39.33;99738.53;4354117;32;33423;-82
2023/05/24 11:27:02;;;;;;;;;;;;;;;28.01;37.84;99736.97;4339745;32;32877;-82
2023/05/24 11:29:54;;;;;;;;;;;;;;;27.88;38.69;99743.03;4363210;32;34440;-82
2023/05/24 11:32:23;;;;;;;;;;;;;;;27.96;38.90;99733.97;4344138;32;33308;-82
2023/05/24 11:34:55;;;;;;;;;;;;;;;28.35;37.27;99728.44;4366393;32;35009;-82
2023/05/24 11:37:23;;;;;;;;;;;;;;;28.27;37.56;99729.31;4352871;32;34710;-81
2023/05/24 11:40:19;;;;;;;;;;;;;;;28.33;37.40;99730.44;4362933;32;35082;-82
2023/05/24 11:42:49;;;;;;;;;;;;;;;28.21;37.43;99737.34;4355532;32;33595;-82
2023/05/24 11:45:17;;;;;;;;;;;;;;;28.62;35.96;99728.84;4353235;32;34351;-82
2023/05/24 11:47:50;;;;;;;;;;;;;;;28.38;37.04;99727.22;4355009;32;32765;-82
2023/05/24 11:50:23;;;;;;;;;;;;;;;28.05;38.25;99722.03;4360724;32;33953;-82
2023/05/24 11:53:01;;;;;;;;;;;;;;;28.36;37.29;99734.72;4314669;32;1008042;-82
2023/05/24 11:55:29;;;;;;;;;;;;;;;28.24;37.06;99732.38;4367116;32;34900;-82
2023/05/24 11:57:58;;;;;;;;;;;;;;;28.60;36.50;99720.91;4355286;32;34102;-82
2023/05/24 12:00:28;;;;;;;;;;;;;;;28.38;37.79;99717.19;4363741;32;34003;-82
2023/05/24 12:03:05;;;;;;;;;;;;;;;28.37;36.22;99720.09;4347228;32;33524;-82
2023/05/24 12:05:34;;;;;;;;;;;;;;;28.49;37.17;99724.06;4367453;32;34514;-82
2023/05/24 12:08:04;;;;;;;;;;;;;;;28.89;36.58;99713.78;4356635;32;34422;-82
2023/05/24 12:10:41;;;;;;;;;;;;;;;28.71;36.63;99722.31;4370437;32;34457;-82
2023/05/24 12:13:24;;;;;;;;;;;;;;;28.54;36.98;99721.66;4365808;32;33522;-82
2023/05/24 12:15:52;;;;;;;;;;;;;;;28.48;37.02;99717.75;4353408;32;32630;-82
2023/05/24 12:18:24;;;;;;;;;;;;;;;28.50;35.57;99729.31;4351845;32;33985;-82
2023/05/24 12:20:54;;;;;;;;;;;;;;;28.26;36.31;99718.66;4356818;32;34455;-82
2023/05/24 12:23:31;;;;;;;;;;;;;;;28.18;36.54;99722.25;4366887;32;34956;-82
2023/05/24 12:26:02;;;;;;;;;;;;;;;27.84;36.92;99719.16;4355271;32;32858;-82
2023/05/24 12:28:37;;;;;;;;;;;;;;;27.14;38.78;99731.69;4341148;32;34072;-82
2023/05/24 12:31:07;;;;;;;;;;;;;;;28.08;35.91;99724.38;4360500;32;33069;-82
2023/05/24 12:33:38;;;;;;;;;;;;;;;28.12;34.88;99725.72;4352750;32;33456;-82
2023/05/24 12:36:06;;;;;;;;;;;;;;;27.93;36.63;99720.78;4356630;32;34822;-83
2023/05/24 12:38:35;;;;;;;;;;;;;;;27.85;36.59;99715.41;4354493;32;34558;-83
2023/05/24 12:41:06;;;;;;;;;;;;;;;28.10;36.76;99708.75;4355005;32;35122;-82
2023/05/24 12:43:43;;;;;;;;;;;;;;;28.58;35.35;99709.34;4363859;32;32879;-82
2023/05/24 12:46:12;;;;;;;;;;;;;;;28.48;35.60;99701.47;4360836;32;34577;-82
2023/05/24 12:48:39;;;;;;;;;;;;;;;28.24;35.84;99704.37;4355571;32;34761;-82
2023/05/24 12:51:10;;;;;;;;;;;;;;;28.12;34.60;99697.72;4352442;32;32403;-82
2023/05/24 12:53:37;;;;;;;;;;;;;;;28.42;35.02;99701.38;4366471;32;33376;-82
2023/05/24 12:56:07;;;;;;;;;;;;;;;28.58;35.09;99696.63;4345387;32;34676;-82
2023/05/24 12:58:35;;;;;;;;;;;;;;;28.39;35.98;99699.03;4354807;32;33924;-82
2023/05/24 13:01:04;;;;;;;;;;;;;;;28.57;35.37;99697.66;4362901;32;34787;-82
2023/05/24 13:03:34;;;;;;;;;;;;;;;28.66;35.31;99687.53;4363408;32;33616;-82
2023/05/24 13:06:08;;;;;;;;;;;;;;;28.70;35.48;99683.44;4359009;32;35204;-83
2023/05/24 13:08:38;;;;;;;;;;;;;;;28.69;35.19;99692.62;4362716;32;35080;-82
2023/05/24 13:11:09;;;;;;;;;;;;;;;28.43;35.20;99684.06;4354844;32;33790;-83